createdAt,value
2018-01-29T00:01:52.903Z,0.70
2018-01-29T00:04:20.163Z,0.73
2018-01-29T00:06:47.412Z,0.70
2018-01-29T00:09:14.744Z,0.60
2018-01-29T00:11:41.994Z,0.70
2018-01-29T00:14:09.259Z,0.90
2018-01-29T00:16:36.512Z,0.70
2018-01-29T00:19:03.776Z,0.80
2018-01-29T00:21:31.027Z,0.70
2018-01-29T00:23:58.291Z,0.73
2018-01-29T00:26:25.550Z,1.00
2018-01-29T00:28:52.816Z,1.10
2018-01-29T00:31:20.068Z,0.80
2018-01-29T00:33:47.348Z,0.70
2018-01-29T00:36:14.628Z,0.80
2018-01-29T00:38:41.891Z,0.87
2018-01-29T00:41:09.144Z,0.80
2018-01-29T00:43:36.413Z,0.70
2018-01-29T00:46:03.660Z,0.50
2018-01-29T00:48:30.921Z,0.80
2018-01-29T00:50:58.172Z,0.80
2018-01-29T00:53:25.494Z,0.63
2018-01-29T00:55:52.751Z,0.73
2018-01-29T00:58:20.017Z,0.70
2018-01-29T01:00:47.278Z,0.63
2018-01-29T01:03:14.556Z,0.70
2018-01-29T01:05:41.803Z,0.70
2018-01-29T01:08:09.121Z,0.70
2018-01-29T01:10:36.370Z,0.60
2018-01-29T01:13:03.727Z,0.60
2018-01-29T01:15:30.991Z,0.80
2018-01-29T01:17:58.240Z,0.70
2018-01-29T01:20:25.504Z,0.80
2018-01-29T01:22:52.750Z,0.70
2018-01-29T01:25:20.027Z,0.70
2018-01-29T01:27:47.361Z,0.80
2018-01-29T01:30:14.629Z,0.57
2018-01-29T01:32:41.876Z,0.80
2018-01-29T01:35:09.147Z,0.67
2018-01-29T01:37:36.397Z,0.60
2018-01-29T01:40:03.670Z,0.60
2018-01-29T01:42:30.971Z,0.70
2018-01-29T01:44:58.192Z,0.70
2018-01-29T01:47:25.442Z,0.93
2018-01-29T01:49:52.717Z,0.70
2018-01-29T01:52:19.968Z,0.70
2018-01-29T01:54:47.240Z,0.70
2018-01-29T01:57:14.488Z,0.60
2018-01-29T01:59:41.760Z,0.70
2018-01-29T02:02:09.010Z,0.60
2018-01-29T02:04:36.356Z,0.80
2018-01-29T02:07:03.612Z,0.77
2018-01-29T02:09:30.877Z,0.70
2018-01-29T02:11:58.124Z,0.73
2018-01-29T02:14:25.404Z,0.97
2018-01-29T02:16:52.653Z,0.57
2018-01-29T02:19:19.911Z,0.90
2018-01-29T02:21:47.231Z,0.60
2018-01-29T02:24:14.508Z,0.80
2018-01-29T02:26:41.753Z,0.70
2018-01-29T02:29:09.021Z,0.90
2018-01-29T02:31:36.267Z,1.00
2018-01-29T02:34:03.534Z,0.80
2018-01-29T02:36:30.785Z,0.80
2018-01-29T02:38:58.049Z,0.80
2018-01-29T02:41:25.300Z,0.97
2018-01-29T02:43:52.567Z,0.63
2018-01-29T02:46:19.818Z,0.70
2018-01-29T02:48:47.084Z,0.70
2018-01-29T02:51:14.853Z,0.83
2018-01-29T02:53:42.116Z,0.90
2018-01-29T02:56:09.367Z,0.70
2018-01-29T02:58:36.639Z,0.63
2018-01-29T03:01:03.896Z,0.77
2018-01-29T03:03:31.163Z,0.83
2018-01-29T03:05:58.413Z,0.80
2018-01-29T03:08:25.690Z,0.70
2018-01-29T03:10:53.012Z,0.67
2018-01-29T03:13:20.264Z,0.77
2018-01-29T03:15:47.535Z,0.70
2018-01-29T03:18:14.786Z,1.07
2018-01-29T03:20:42.132Z,0.70
2018-01-29T03:23:09.378Z,1.10
2018-01-29T03:25:36.652Z,0.90
2018-01-29T03:28:03.896Z,0.70
2018-01-29T03:30:31.246Z,0.80
2018-01-29T03:32:58.497Z,1.03
2018-01-29T03:35:25.773Z,0.90
2018-01-29T03:37:53.015Z,0.90
2018-01-29T03:40:20.356Z,0.87
2018-01-29T03:42:47.612Z,0.97
2018-01-29T03:45:14.875Z,0.87
2018-01-29T03:47:42.123Z,0.83
2018-01-29T03:50:09.396Z,1.00
2018-01-29T03:52:36.728Z,1.00
2018-01-29T03:55:03.992Z,0.73
2018-01-29T03:57:31.248Z,1.20
2018-01-29T03:59:58.516Z,0.80
2018-01-29T04:02:25.768Z,1.07
2018-01-29T04:04:53.040Z,0.87
2018-01-29T04:07:20.284Z,0.97
2018-01-29T04:09:47.558Z,0.80
2018-01-29T04:12:14.816Z,1.10
2018-01-29T04:14:42.082Z,1.00
2018-01-29T04:17:09.325Z,1.13
2018-01-29T04:19:36.596Z,1.00
2018-01-29T04:22:03.849Z,1.10
2018-01-29T04:24:31.119Z,0.80
2018-01-29T04:26:58.384Z,0.97
2018-01-29T04:29:25.663Z,1.17
2018-01-29T04:31:52.911Z,1.17
2018-01-29T04:34:20.159Z,1.07
2018-01-29T04:36:47.503Z,1.00
2018-01-29T04:39:14.762Z,1.23
2018-01-29T04:41:42.028Z,1.30
2018-01-29T04:44:26.127Z,1.07
2018-01-29T04:46:53.397Z,1.00
2018-01-29T04:49:20.640Z,1.20
2018-01-29T04:51:48.155Z,1.20
2018-01-29T04:54:15.402Z,0.93
2018-01-29T04:56:42.668Z,1.30
2018-01-29T04:59:09.917Z,1.23
2018-01-29T05:01:37.228Z,1.40
2018-01-29T05:04:04.476Z,1.60
2018-01-29T05:06:31.744Z,1.30
2018-01-29T05:08:58.992Z,1.13
2018-01-29T05:11:26.260Z,1.43
2018-01-29T05:13:53.503Z,1.13
2018-01-29T05:16:20.770Z,1.17
2018-01-29T05:18:48.019Z,1.30
2018-01-29T05:21:15.281Z,1.30
2018-01-29T05:23:42.568Z,1.07
2018-01-29T05:26:09.812Z,1.40
2018-01-29T05:28:37.116Z,1.53
2018-01-29T05:31:06.160Z,1.20
2018-01-29T05:33:33.691Z,1.30
2018-01-29T05:36:01.022Z,1.27
2018-01-29T05:38:48.172Z,1.40
2018-01-29T05:41:15.423Z,1.00
2018-01-29T05:43:42.691Z,1.00
2018-01-29T05:46:09.945Z,0.97
2018-01-29T05:48:37.208Z,0.90
2018-01-29T05:51:04.455Z,1.00
2018-01-29T05:53:31.724Z,1.10
2018-01-29T05:55:59.029Z,1.07
2018-01-29T05:58:26.379Z,1.27
2018-01-29T06:00:53.627Z,1.20
2018-01-29T06:03:20.896Z,1.07
2018-01-29T06:05:48.139Z,1.17
2018-01-29T06:08:15.399Z,1.20
2018-01-29T06:10:42.711Z,1.10
2018-01-29T06:13:09.991Z,1.00
2018-01-29T06:15:37.259Z,1.20
2018-01-29T06:18:04.526Z,1.20
2018-01-29T06:20:31.771Z,1.10
2018-01-29T06:22:59.040Z,1.30
2018-01-29T06:25:26.301Z,1.20
2018-01-29T06:27:53.579Z,1.30
2018-01-29T06:30:21.031Z,1.40
2018-01-29T06:32:48.284Z,1.40
2018-01-29T06:35:15.552Z,1.50
2018-01-29T06:37:42.848Z,1.40
2018-01-29T06:40:10.206Z,1.40
2018-01-29T06:42:37.479Z,1.30
2018-01-29T06:45:04.732Z,1.30
2018-01-29T06:47:32.062Z,1.60
2018-01-29T06:49:59.342Z,1.57
2018-01-29T06:52:26.677Z,1.10
2018-01-29T06:54:53.932Z,1.50
2018-01-29T06:57:21.277Z,1.27
2018-01-29T06:59:48.556Z,1.53
2018-01-29T07:02:15.901Z,1.40
2018-01-29T07:04:43.173Z,1.43
2018-01-29T07:07:10.420Z,1.53
2018-01-29T07:09:37.705Z,1.23
2018-01-29T07:12:04.958Z,1.20
2018-01-29T07:14:32.230Z,1.27
2018-01-29T07:16:59.507Z,1.30
2018-01-29T07:19:26.762Z,1.10
2018-01-29T07:21:54.012Z,1.10
2018-01-29T07:24:21.275Z,1.10
2018-01-29T07:26:48.532Z,1.10
2018-01-29T07:29:15.814Z,1.80
2018-01-29T07:31:43.055Z,1.20
2018-01-29T07:34:10.407Z,1.50
2018-01-29T07:36:37.659Z,1.27
2018-01-29T07:39:04.907Z,1.70
2018-01-29T07:41:32.180Z,1.30
2018-01-29T07:43:59.569Z,1.40
2018-01-29T07:46:26.869Z,1.40
2018-01-29T07:48:54.121Z,2.10
2018-01-29T07:51:21.373Z,1.47
2018-01-29T07:53:48.657Z,1.90
2018-01-29T07:56:15.915Z,2.37
2018-01-29T07:58:43.192Z,2.00
2018-01-29T08:01:10.473Z,1.77
2018-01-29T08:03:37.753Z,1.90
2018-01-29T08:06:05.098Z,2.23
2018-01-29T08:08:32.380Z,2.00
2018-01-29T08:10:59.633Z,2.63
2018-01-29T08:13:26.905Z,2.77
2018-01-29T08:15:54.187Z,2.93
2018-01-29T08:18:21.470Z,2.20
2018-01-29T08:20:48.821Z,2.40
2018-01-29T08:23:16.180Z,2.50
2018-01-29T08:25:43.457Z,2.80
2018-01-29T08:28:10.745Z,2.93
2018-01-29T08:30:37.997Z,2.50
2018-01-29T08:33:05.285Z,2.67
2018-01-29T08:35:32.560Z,3.00
2018-01-29T08:37:59.820Z,2.87
2018-01-29T08:40:27.109Z,2.20
2018-01-29T08:42:54.377Z,3.20
2018-01-29T08:45:21.645Z,3.00
2018-01-29T08:47:49.050Z,2.80
2018-01-29T08:50:16.180Z,3.30
2018-01-29T08:52:43.452Z,3.23
2018-01-29T08:55:10.703Z,3.00
2018-01-29T08:57:38.005Z,2.73
2018-01-29T09:00:05.286Z,3.90
2018-01-29T09:02:32.533Z,3.60
2018-01-29T09:04:59.817Z,3.37
2018-01-29T09:07:27.070Z,3.20
2018-01-29T09:09:54.357Z,3.77
2018-01-29T09:12:21.641Z,4.27
2018-01-29T09:14:48.926Z,3.83
2018-01-29T09:17:16.175Z,3.87
2018-01-29T09:19:43.464Z,3.43
2018-01-29T09:22:10.740Z,3.80
2018-01-29T09:24:38.024Z,3.93
2018-01-29T09:27:05.298Z,3.87
2018-01-29T09:29:32.582Z,3.83
2018-01-29T09:31:59.834Z,3.70
2018-01-29T09:34:27.132Z,4.13
2018-01-29T09:36:54.393Z,4.17
2018-01-29T09:39:21.654Z,4.40
2018-01-29T09:41:49.004Z,4.40
2018-01-29T09:44:16.262Z,3.90
2018-01-29T09:46:43.522Z,3.90
2018-01-29T09:49:10.801Z,4.10
2018-01-29T09:51:38.118Z,4.33
2018-01-29T09:54:05.398Z,4.30
2018-01-29T09:56:32.712Z,4.10
2018-01-29T09:58:59.945Z,4.53
2018-01-29T10:01:27.194Z,4.47
2018-01-29T10:03:54.469Z,4.30
2018-01-29T10:06:21.726Z,4.77
2018-01-29T10:08:49.020Z,3.83
2018-01-29T10:11:16.297Z,3.70
2018-01-29T10:13:43.547Z,5.13
2018-01-29T10:16:10.832Z,4.20
2018-01-29T10:18:38.144Z,4.17
2018-01-29T10:21:05.396Z,3.90
2018-01-29T10:23:32.796Z,5.00
2018-01-29T10:26:00.072Z,4.90
2018-01-29T10:28:27.353Z,5.17
2018-01-29T10:30:54.606Z,4.20
2018-01-29T10:33:21.928Z,3.90
2018-01-29T10:35:49.203Z,4.67
2018-01-29T10:38:16.453Z,4.27
2018-01-29T10:40:43.729Z,4.13
2018-01-29T10:43:11.047Z,4.27
2018-01-29T10:45:38.370Z,4.57
2018-01-29T10:48:05.588Z,3.97
2018-01-29T10:50:32.848Z,3.93
2018-01-29T10:53:00.121Z,4.03
2018-01-29T10:55:27.373Z,3.67
2018-01-29T10:57:54.653Z,3.83
2018-01-29T11:00:21.924Z,3.40
2018-01-29T11:02:49.275Z,3.43
2018-01-29T11:05:16.548Z,3.37
2018-01-29T11:07:43.800Z,3.23
2018-01-29T11:10:11.083Z,3.10
2018-01-29T11:12:38.333Z,3.00
2018-01-29T11:15:05.583Z,2.57
2018-01-29T11:17:32.863Z,2.87
2018-01-29T11:20:00.107Z,2.50
2018-01-29T11:22:27.393Z,2.80
2018-01-29T11:24:54.672Z,2.90
2018-01-29T11:27:21.899Z,2.43
2018-01-29T11:29:49.171Z,2.40
2018-01-29T11:32:16.447Z,2.60
2018-01-29T11:34:43.691Z,2.47
2018-01-29T11:37:10.963Z,2.93
2018-01-29T11:39:38.221Z,2.73
2018-01-29T11:42:05.536Z,2.57
2018-01-29T11:44:32.811Z,2.47
2018-01-29T11:47:00.064Z,2.50
2018-01-29T11:49:27.344Z,2.80
2018-01-29T11:51:54.599Z,2.17
2018-01-29T11:54:21.904Z,2.27
2018-01-29T11:56:49.189Z,2.70
2018-01-29T11:59:16.507Z,2.63
2018-01-29T12:01:43.759Z,2.23
2018-01-29T12:04:11.116Z,2.00
2018-01-29T12:06:38.387Z,2.43
2018-01-29T12:09:05.636Z,2.33
2018-01-29T12:11:32.944Z,2.53
2018-01-29T12:14:00.190Z,2.07
2018-01-29T12:16:27.443Z,2.57
2018-01-29T12:18:54.724Z,2.53
2018-01-29T12:21:21.987Z,2.47
2018-01-29T12:23:49.233Z,2.50
2018-01-29T12:26:16.608Z,2.30
2018-01-29T12:28:43.864Z,2.40
2018-01-29T12:31:11.141Z,2.17
2018-01-29T12:33:38.388Z,1.93
2018-01-29T12:36:05.724Z,1.90
2018-01-29T12:38:32.975Z,2.03
2018-01-29T12:41:00.235Z,2.20
2018-01-29T12:43:27.508Z,1.80
2018-01-29T12:45:54.754Z,1.50
2018-01-29T12:48:22.028Z,1.60
2018-01-29T12:50:49.287Z,1.67
2018-01-29T12:53:16.557Z,1.70
2018-01-29T12:55:43.836Z,1.77
2018-01-29T12:58:11.096Z,1.33
2018-01-29T13:00:38.345Z,1.40
2018-01-29T13:03:05.619Z,1.30
2018-01-29T13:05:32.872Z,1.30
2018-01-29T13:08:00.146Z,1.73
2018-01-29T13:10:27.616Z,1.50
2018-01-29T13:12:54.958Z,1.10
2018-01-29T13:15:22.372Z,1.13
2018-01-29T13:17:49.652Z,1.30
2018-01-29T13:20:16.923Z,1.10
2018-01-29T13:22:44.171Z,1.50
2018-01-29T13:25:11.456Z,1.40
2018-01-29T13:27:38.713Z,1.17
2018-01-29T13:30:06.021Z,1.30
2018-01-29T13:32:33.291Z,1.70
2018-01-29T13:35:00.571Z,1.33
2018-01-29T13:37:27.824Z,1.57
2018-01-29T13:39:55.128Z,1.70
2018-01-29T13:42:22.380Z,1.60
2018-01-29T13:44:49.651Z,1.70
2018-01-29T13:47:17.005Z,1.60
2018-01-29T13:49:44.272Z,1.50
2018-01-29T13:52:11.552Z,1.57
2018-01-29T13:54:38.800Z,1.63
2018-01-29T13:57:06.213Z,2.00
2018-01-29T13:59:33.469Z,1.80
2018-01-29T14:02:00.756Z,2.07
2018-01-29T14:04:28.086Z,2.07
2018-01-29T14:06:55.588Z,1.77
2018-01-29T14:09:22.864Z,2.07
2018-01-29T14:11:50.125Z,2.40
2018-01-29T14:14:17.436Z,2.43
2018-01-29T14:16:44.685Z,2.67
2018-01-29T14:19:11.933Z,2.23
2018-01-29T14:21:39.375Z,2.73
2018-01-29T14:24:06.627Z,2.60
2018-01-29T14:26:33.876Z,2.30
2018-01-29T14:29:01.258Z,2.30
2018-01-29T14:31:28.476Z,2.80
2018-01-29T14:33:55.743Z,2.87
2018-01-29T14:36:23.018Z,2.60
2018-01-29T14:38:50.304Z,3.30
2018-01-29T14:41:17.591Z,3.03
2018-01-29T14:43:44.841Z,2.97
2018-01-29T14:46:12.124Z,2.80
2018-01-29T14:48:39.376Z,3.07
2018-01-29T14:51:06.655Z,3.33
2018-01-29T14:53:33.955Z,3.20
2018-01-29T14:56:01.209Z,3.20
2018-01-29T14:58:28.482Z,3.27
2018-01-29T15:00:55.723Z,3.43
2018-01-29T15:03:23.000Z,3.10
2018-01-29T15:05:50.327Z,3.00
2018-01-29T15:08:17.732Z,3.27
2018-01-29T15:10:45.041Z,4.63
2018-01-29T15:13:12.293Z,3.30
2018-01-29T15:15:39.536Z,2.90
2018-01-29T15:18:06.817Z,3.43
2018-01-29T15:20:34.099Z,3.10
2018-01-29T15:23:01.408Z,3.13
2018-01-29T15:25:28.655Z,3.47
2018-01-29T15:27:55.931Z,3.50
2018-01-29T15:30:23.209Z,3.70
2018-01-29T15:32:50.460Z,3.10
2018-01-29T15:35:17.741Z,3.00
2018-01-29T15:37:44.993Z,2.90
2018-01-29T15:40:12.275Z,3.07
2018-01-29T15:42:39.528Z,3.37
2018-01-29T15:45:06.897Z,3.83
2018-01-29T15:47:34.144Z,3.30
2018-01-29T15:50:01.400Z,3.50
2018-01-29T15:52:28.678Z,3.23
2018-01-29T15:54:55.929Z,3.37
2018-01-29T15:57:23.200Z,3.03
2018-01-29T15:59:50.482Z,3.83
2018-01-29T16:02:17.756Z,3.57
2018-01-29T16:04:45.007Z,3.60
2018-01-29T16:07:12.376Z,2.90
2018-01-29T16:09:39.623Z,3.40
2018-01-29T16:12:06.899Z,2.80
2018-01-29T16:14:34.145Z,3.37
2018-01-29T16:17:01.448Z,2.50
2018-01-29T16:19:28.706Z,3.17
2018-01-29T16:21:55.944Z,2.47
2018-01-29T16:24:23.252Z,1.93
2018-01-29T16:26:50.508Z,2.40
2018-01-29T16:29:17.752Z,2.23
2018-01-29T16:31:45.052Z,2.20
2018-01-29T16:34:12.295Z,2.80
2018-01-29T16:36:39.579Z,2.83
2018-01-29T16:39:06.885Z,2.00
2018-01-29T16:41:34.276Z,2.40
2018-01-29T16:44:01.524Z,2.13
2018-01-29T16:46:28.799Z,2.53
2018-01-29T16:48:56.103Z,2.60
2018-01-29T16:51:23.347Z,2.50
2018-01-29T16:53:50.628Z,2.20
2018-01-29T16:56:17.875Z,2.10
2018-01-29T16:58:45.175Z,2.33
2018-01-29T17:01:12.463Z,2.80
2018-01-29T17:03:39.719Z,2.10
2018-01-29T17:06:07.843Z,1.90
2018-01-29T17:08:35.115Z,2.50
2018-01-29T17:11:02.399Z,2.30
2018-01-29T17:13:29.695Z,2.30
2018-01-29T17:15:56.952Z,2.80
2018-01-29T17:18:24.268Z,2.47
2018-01-29T17:20:51.621Z,2.60
2018-01-29T17:23:18.978Z,2.80
2018-01-29T17:25:46.283Z,2.90
2018-01-29T17:28:13.532Z,2.93
2018-01-29T17:30:40.826Z,2.47
2018-01-29T17:33:08.063Z,2.50
2018-01-29T17:35:35.340Z,2.97
2018-01-29T17:38:02.611Z,2.40
2018-01-29T17:40:29.868Z,3.40
2018-01-29T17:42:57.139Z,2.60
2018-01-29T17:45:24.459Z,2.50
2018-01-29T17:47:51.710Z,2.83
2018-01-29T17:50:18.975Z,2.40
2018-01-29T17:52:46.234Z,2.60
2018-01-29T17:55:13.583Z,2.20
2018-01-29T17:57:40.846Z,2.10
2018-01-29T18:00:08.089Z,2.60
2018-01-29T18:02:35.360Z,2.37
2018-01-29T18:05:02.644Z,2.20
2018-01-29T18:07:29.923Z,3.00
2018-01-29T18:09:57.164Z,2.70
2018-01-29T18:12:24.450Z,2.97
2018-01-29T18:14:51.696Z,2.60
2018-01-29T18:17:18.964Z,2.40
2018-01-29T18:19:46.252Z,2.10
2018-01-29T18:22:13.508Z,2.10
2018-01-29T18:24:41.310Z,2.67
2018-01-29T18:27:08.583Z,2.20
2018-01-29T18:29:35.839Z,1.83
2018-01-29T18:32:03.113Z,2.27
2018-01-29T18:34:30.369Z,2.00
2018-01-29T18:36:57.641Z,2.20
2018-01-29T18:39:24.954Z,1.90
2018-01-29T18:41:52.207Z,1.87
2018-01-29T18:44:19.564Z,1.93
2018-01-29T18:46:46.833Z,2.00
2018-01-29T18:49:14.093Z,1.90
2018-01-29T18:51:41.338Z,2.00
2018-01-29T18:54:08.620Z,2.03
2018-01-29T18:56:35.867Z,1.70
2018-01-29T18:59:03.118Z,2.40
2018-01-29T19:01:30.388Z,3.13
2018-01-29T19:03:58.068Z,2.10
2018-01-29T19:06:25.352Z,2.20
2018-01-29T19:08:52.599Z,1.77
2018-01-29T19:11:19.852Z,2.30
2018-01-29T19:13:47.129Z,1.93
2018-01-29T19:16:14.405Z,2.20
2018-01-29T19:18:41.690Z,2.37
2018-01-29T19:21:08.939Z,2.53
2018-01-29T19:23:36.339Z,2.13
2018-01-29T19:26:03.593Z,2.67
2018-01-29T19:28:30.860Z,2.23
2018-01-29T19:30:58.107Z,2.40
2018-01-29T19:33:25.374Z,2.70
2018-01-29T19:35:52.624Z,2.43
2018-01-29T19:38:19.899Z,2.40
2018-01-29T19:40:47.144Z,2.33
2018-01-29T19:43:14.399Z,2.50
2018-01-29T19:45:41.660Z,2.00
2018-01-29T19:48:08.913Z,3.20
2018-01-29T19:50:36.184Z,2.90
2018-01-29T19:53:03.439Z,2.70
2018-01-29T19:55:30.709Z,2.80
2018-01-29T19:57:57.961Z,2.47
2018-01-29T20:00:25.223Z,2.37
2018-01-29T20:02:52.500Z,2.30
2018-01-29T20:05:19.767Z,2.80
2018-01-29T20:07:47.020Z,2.53
2018-01-29T20:10:14.356Z,2.70
2018-01-29T20:12:41.618Z,2.30
2018-01-29T20:15:08.914Z,2.33
2018-01-29T20:17:36.136Z,2.20
2018-01-29T20:20:03.468Z,2.10
2018-01-29T20:22:30.741Z,2.37
2018-01-29T20:24:57.984Z,2.33
2018-01-29T20:27:25.256Z,2.40
2018-01-29T20:29:52.508Z,2.03
2018-01-29T20:32:19.778Z,2.53
2018-01-29T20:34:47.027Z,1.93
2018-01-29T20:37:14.287Z,2.43
2018-01-29T20:39:41.531Z,1.90
2018-01-29T20:42:08.801Z,2.00
2018-01-29T20:44:36.052Z,1.60
2018-01-29T20:47:03.360Z,1.67
2018-01-29T20:49:30.712Z,1.83
2018-01-29T20:51:57.984Z,1.97
2018-01-29T20:54:25.239Z,1.70
2018-01-29T20:56:52.504Z,1.60
2018-01-29T20:59:19.750Z,1.97
2018-01-29T21:01:47.024Z,1.90
2018-01-29T21:04:14.342Z,2.23
2018-01-29T21:06:41.638Z,1.73
2018-01-29T21:09:08.859Z,1.60
2018-01-29T21:11:36.113Z,1.70
2018-01-29T21:14:03.382Z,2.07
2018-01-29T21:16:30.640Z,1.90
2018-01-29T21:18:57.960Z,1.70
2018-01-29T21:21:25.212Z,1.50
2018-01-29T21:23:52.484Z,1.90
2018-01-29T21:26:19.823Z,1.70
2018-01-29T21:28:47.088Z,1.80
2018-01-29T21:31:14.336Z,2.30
2018-01-29T21:33:41.600Z,2.03
2018-01-29T21:36:08.937Z,2.10
2018-01-29T21:38:36.204Z,1.60
2018-01-29T21:41:03.456Z,1.60
2018-01-29T21:43:30.808Z,1.80
2018-01-29T21:45:58.080Z,2.00
2018-01-29T21:48:25.338Z,1.97
2018-01-29T21:50:52.609Z,1.70
2018-01-29T21:53:19.863Z,1.60
2018-01-29T21:55:47.171Z,1.70
2018-01-29T21:58:14.411Z,1.90
2018-01-29T22:00:41.676Z,1.43
2018-01-29T22:03:08.936Z,2.00
2018-01-29T22:05:36.195Z,1.53
2018-01-29T22:08:03.538Z,1.30
2018-01-29T22:10:30.822Z,1.40
2018-01-29T22:12:58.153Z,1.40
2018-01-29T22:15:25.407Z,0.87
2018-01-29T22:17:52.676Z,0.90
2018-01-29T22:20:20.008Z,1.10
2018-01-29T22:22:47.279Z,1.03
2018-01-29T22:25:14.519Z,0.90
2018-01-29T22:27:41.872Z,1.30
2018-01-29T22:30:09.129Z,1.30
2018-01-29T22:32:36.480Z,1.07
2018-01-29T22:35:03.740Z,0.90
2018-01-29T22:37:31.007Z,0.90
2018-01-29T22:39:58.389Z,1.40
2018-01-29T22:42:25.619Z,1.37
2018-01-29T22:44:52.864Z,1.47
2018-01-29T22:47:20.132Z,1.40
2018-01-29T22:49:47.389Z,1.60
2018-01-29T22:52:14.651Z,1.80
2018-01-29T22:54:41.969Z,2.17
2018-01-29T22:57:09.241Z,2.30
2018-01-29T22:59:36.530Z,2.50
2018-01-29T23:02:03.792Z,2.30
2018-01-29T23:04:31.088Z,2.33
2018-01-29T23:06:58.341Z,2.70
2018-01-29T23:09:25.688Z,3.40
2018-01-29T23:11:52.940Z,2.20
2018-01-29T23:14:20.206Z,2.77
2018-01-29T23:16:47.451Z,3.30
2018-01-29T23:19:14.804Z,2.93
2018-01-29T23:21:42.056Z,4.07
2018-01-29T23:24:09.323Z,3.60
2018-01-29T23:26:36.576Z,3.07
2018-01-29T23:29:03.847Z,3.50
2018-01-29T23:31:31.110Z,3.80
2018-01-29T23:33:58.366Z,3.83
2018-01-29T23:36:25.616Z,4.00
2018-01-29T23:38:52.892Z,3.77
2018-01-29T23:41:20.143Z,3.50
2018-01-29T23:43:47.414Z,3.23
2018-01-29T23:46:14.668Z,3.20
2018-01-29T23:48:41.950Z,3.83
2018-01-29T23:51:09.196Z,3.00
2018-01-29T23:53:36.490Z,3.90
2018-01-29T23:56:03.733Z,3.63
2018-01-29T23:58:30.979Z,3.20
